createdAt,value
2017-06-16T00:00:02.887Z,5.73
2017-06-16T00:02:29.233Z,6.90
2017-06-16T00:04:55.698Z,4.93
2017-06-16T00:07:22.024Z,5.00
2017-06-16T00:09:48.375Z,6.97
2017-06-16T00:12:14.690Z,5.67
2017-06-16T00:14:41.028Z,6.50
2017-06-16T00:17:07.358Z,4.53
2017-06-16T00:19:33.816Z,3.90
2017-06-16T00:22:00.138Z,3.97
2017-06-16T00:24:26.487Z,4.33
2017-06-16T00:26:52.847Z,5.50
2017-06-16T00:29:19.191Z,4.70
2017-06-16T00:31:45.516Z,5.50
2017-06-16T00:34:11.857Z,3.00
2017-06-16T00:36:38.166Z,2.87
2017-06-16T00:39:04.506Z,4.80
2017-06-16T00:41:33.234Z,5.00
2017-06-16T00:44:04.282Z,8.80
2017-06-16T00:46:34.382Z,5.50
2017-06-16T00:49:04.210Z,7.20
2017-06-16T00:51:33.085Z,7.70
2017-06-16T00:54:02.917Z,4.60
2017-06-16T00:56:34.245Z,5.50
2017-06-16T00:59:04.205Z,6.33
2017-06-16T01:01:30.695Z,5.40
2017-06-16T01:03:57.042Z,4.73
2017-06-16T01:06:23.356Z,5.10
2017-06-16T01:08:49.685Z,4.27
2017-06-16T01:11:16.017Z,5.67
2017-06-16T01:13:42.358Z,4.40
2017-06-16T01:16:08.665Z,5.13
2017-06-16T01:18:34.982Z,3.80
2017-06-16T01:21:01.305Z,9.57
2017-06-16T01:23:27.606Z,4.47
2017-06-16T01:25:53.933Z,3.27
2017-06-16T01:28:20.258Z,3.93
2017-06-16T01:30:46.633Z,7.70
2017-06-16T01:33:12.997Z,3.53
2017-06-16T01:35:39.326Z,3.17
2017-06-16T01:38:05.683Z,9.57
2017-06-16T01:40:32.047Z,5.13
2017-06-16T01:42:58.431Z,3.50
2017-06-16T01:45:24.874Z,4.07
2017-06-16T01:47:51.236Z,9.70
2017-06-16T01:50:17.573Z,5.27
2017-06-16T01:52:43.922Z,4.03
2017-06-16T01:55:10.226Z,4.87
2017-06-16T01:57:36.558Z,4.93
2017-06-16T02:00:02.944Z,5.77
2017-06-16T02:02:29.310Z,4.80
2017-06-16T02:04:55.656Z,7.67
2017-06-16T02:07:21.969Z,6.70
2017-06-16T02:09:48.293Z,3.73
2017-06-16T02:12:14.655Z,4.03
2017-06-16T02:14:40.976Z,3.80
2017-06-16T02:17:07.304Z,7.23
2017-06-16T02:19:33.740Z,6.13
2017-06-16T02:22:00.064Z,3.90
2017-06-16T02:24:26.897Z,6.90
2017-06-16T02:26:53.226Z,7.33
2017-06-16T02:29:19.768Z,4.23
2017-06-16T02:31:46.231Z,9.13
2017-06-16T02:34:12.541Z,9.43
2017-06-16T02:36:38.869Z,5.10
2017-06-16T02:39:05.202Z,9.83
2017-06-16T02:41:31.607Z,7.90
2017-06-16T02:43:57.950Z,4.90
2017-06-16T02:46:25.117Z,8.07
2017-06-16T02:48:51.441Z,7.47
2017-06-16T02:51:17.769Z,10.23
2017-06-16T02:53:44.068Z,5.63
2017-06-16T02:56:10.440Z,7.67
2017-06-16T02:58:36.790Z,5.70
2017-06-16T03:01:03.091Z,8.20
2017-06-16T03:03:29.415Z,9.37
2017-06-16T03:05:55.707Z,5.60
2017-06-16T03:08:22.068Z,9.40
2017-06-16T03:10:48.415Z,8.20
2017-06-16T03:15:41.478Z,8.73
2017-06-16T03:18:07.808Z,7.40
2017-06-16T03:20:34.180Z,9.47
2017-06-16T03:23:01.282Z,7.50
2017-06-16T03:25:27.592Z,7.27
2017-06-16T03:27:53.897Z,6.00
2017-06-16T03:30:20.231Z,9.43
2017-06-16T03:32:46.543Z,7.07
2017-06-16T03:35:12.876Z,11.57
2017-06-16T03:37:39.199Z,8.50
2017-06-16T03:40:05.549Z,13.13
2017-06-16T03:42:31.928Z,10.53
2017-06-16T03:44:58.234Z,7.60
2017-06-16T03:47:24.528Z,15.20
2017-06-16T03:49:50.860Z,11.23
2017-06-16T03:52:17.180Z,11.43
2017-06-16T03:54:43.500Z,8.03
2017-06-16T03:57:09.810Z,13.40
2017-06-16T03:59:36.114Z,7.60
2017-06-16T04:02:02.425Z,18.33
2017-06-16T04:04:28.914Z,9.30
2017-06-16T04:06:55.238Z,9.37
2017-06-16T04:09:21.549Z,10.27
2017-06-16T04:11:47.885Z,10.43
2017-06-16T04:14:14.283Z,9.27
2017-06-16T04:16:40.623Z,12.27
2017-06-16T04:19:06.930Z,9.67
2017-06-16T04:21:33.257Z,13.80
2017-06-16T04:24:00.111Z,9.90
2017-06-16T04:26:26.449Z,11.73
2017-06-16T04:28:52.759Z,11.90
2017-06-16T04:31:19.091Z,10.70
2017-06-16T04:33:45.454Z,14.47
2017-06-16T04:36:11.774Z,11.20
2017-06-16T04:38:38.112Z,13.50
2017-06-16T04:41:04.440Z,15.93
2017-06-16T04:43:30.794Z,14.03
2017-06-16T04:45:57.103Z,14.70
2017-06-16T04:48:23.431Z,11.90
2017-06-16T04:50:49.768Z,15.17
2017-06-16T04:53:16.126Z,14.43
2017-06-16T04:55:42.438Z,16.33
2017-06-16T04:58:08.757Z,14.50
2017-06-16T05:00:35.070Z,10.63
2017-06-16T05:03:01.414Z,22.00
2017-06-16T05:05:27.764Z,15.80
2017-06-16T05:07:54.088Z,15.47
2017-06-16T05:10:20.406Z,16.80
2017-06-16T05:12:46.766Z,18.40
2017-06-16T05:15:13.643Z,10.27
2017-06-16T05:17:39.970Z,21.00
2017-06-16T05:20:06.275Z,18.13
2017-06-16T05:22:38.607Z,12.80
2017-06-16T05:25:04.931Z,18.20
2017-06-16T05:27:31.473Z,14.73
2017-06-16T05:29:57.818Z,17.30
2017-06-16T05:32:24.147Z,21.93
2017-06-16T05:34:50.504Z,19.40
2017-06-16T05:37:16.917Z,13.27
2017-06-16T05:39:43.218Z,25.33
2017-06-16T05:42:09.526Z,14.80
2017-06-16T05:44:35.821Z,13.23
2017-06-16T05:47:02.165Z,17.83
2017-06-16T05:49:28.504Z,12.10
2017-06-16T05:51:54.831Z,18.13
2017-06-16T05:54:21.161Z,14.17
2017-06-16T05:56:47.514Z,17.40
2017-06-16T05:59:13.847Z,13.73
2017-06-16T06:01:40.193Z,14.70
2017-06-16T06:04:06.521Z,26.77
2017-06-16T06:06:32.854Z,16.20
2017-06-16T06:08:59.176Z,17.37
2017-06-16T06:11:25.473Z,17.67
2017-06-16T06:13:51.789Z,12.07
2017-06-16T06:16:18.123Z,16.67
2017-06-16T06:18:44.455Z,13.50
2017-06-16T06:21:10.818Z,13.33
2017-06-16T06:23:37.138Z,18.83
2017-06-16T06:26:03.435Z,14.40
2017-06-16T06:28:29.797Z,12.43
2017-06-16T06:30:56.114Z,16.97
2017-06-16T06:33:22.424Z,20.87
2017-06-16T06:35:48.819Z,14.40
2017-06-16T06:38:15.108Z,14.57
2017-06-16T06:40:41.502Z,16.60
2017-06-16T06:43:07.812Z,15.37
2017-06-16T06:45:34.158Z,11.07
2017-06-16T06:48:00.465Z,15.53
2017-06-16T06:50:27.454Z,12.60
2017-06-16T06:52:54.622Z,14.77
2017-06-16T06:55:21.464Z,12.70
2017-06-16T06:57:48.667Z,12.67
2017-06-16T07:00:15.005Z,9.90
2017-06-16T07:02:41.341Z,11.30
2017-06-16T07:05:07.646Z,11.37
2017-06-16T07:07:33.957Z,16.80
2017-06-16T07:10:00.286Z,13.87
2017-06-16T07:12:26.612Z,16.80
2017-06-16T07:14:52.929Z,12.37
2017-06-16T07:17:19.237Z,12.53
2017-06-16T07:19:45.547Z,16.37
2017-06-16T07:22:11.852Z,8.13
2017-06-16T07:24:38.173Z,11.77
2017-06-16T07:27:04.491Z,6.90
2017-06-16T07:29:30.841Z,9.77
2017-06-16T07:31:57.168Z,12.67
2017-06-16T07:34:23.480Z,10.57
2017-06-16T07:36:49.809Z,12.30
2017-06-16T07:39:16.114Z,10.10
2017-06-16T07:41:42.451Z,13.73
2017-06-16T07:44:08.805Z,10.50
2017-06-16T07:46:35.127Z,14.53
2017-06-16T07:49:01.447Z,15.20
2017-06-16T07:51:27.773Z,17.03
2017-06-16T07:53:54.125Z,15.30
2017-06-16T07:56:20.444Z,15.20
2017-06-16T07:58:46.746Z,12.77
2017-06-16T08:01:13.064Z,12.57
2017-06-16T08:03:39.361Z,13.73
2017-06-16T08:06:05.746Z,10.97
2017-06-16T08:08:32.085Z,10.67
2017-06-16T08:10:58.412Z,17.30
2017-06-16T08:13:24.749Z,11.23
2017-06-16T08:15:51.064Z,7.73
2017-06-16T08:18:17.395Z,11.13
2017-06-16T08:21:04.453Z,15.03
2017-06-16T08:23:30.762Z,9.40
2017-06-16T08:25:57.110Z,11.17
2017-06-16T08:28:23.394Z,11.27
2017-06-16T08:30:49.771Z,16.47
2017-06-16T08:33:16.091Z,17.03
2017-06-16T08:35:42.417Z,7.47
2017-06-16T08:38:08.741Z,15.10
2017-06-16T08:40:35.092Z,10.40
2017-06-16T08:43:01.428Z,13.57
2017-06-16T08:45:27.764Z,11.40
2017-06-16T08:47:54.072Z,8.00
2017-06-16T08:50:20.423Z,7.50
2017-06-16T08:52:46.739Z,8.33
2017-06-16T08:55:13.111Z,11.10
2017-06-16T08:57:39.385Z,11.73
2017-06-16T09:00:05.694Z,10.13
2017-06-16T09:02:32.012Z,11.40
2017-06-16T09:04:58.361Z,22.30
2017-06-16T09:07:24.650Z,10.67
2017-06-16T09:09:50.982Z,11.37
2017-06-16T09:12:17.319Z,9.13
2017-06-16T09:14:43.704Z,9.40
2017-06-16T09:17:10.006Z,11.10
2017-06-16T09:19:36.335Z,11.37
2017-06-16T09:22:02.638Z,5.23
2017-06-16T09:24:28.984Z,11.83
2017-06-16T09:26:55.296Z,8.20
2017-06-16T09:29:21.622Z,8.70
2017-06-16T09:31:47.921Z,8.40
2017-06-16T09:34:14.299Z,10.50
2017-06-16T09:36:40.610Z,9.80
2017-06-16T09:39:06.957Z,9.20
2017-06-16T09:41:33.292Z,12.30
2017-06-16T09:43:59.625Z,6.87
2017-06-16T09:46:25.989Z,9.70
2017-06-16T09:48:52.325Z,7.00
2017-06-16T09:51:18.649Z,13.00
2017-06-16T09:53:45.024Z,17.07
2017-06-16T09:56:11.344Z,8.80
2017-06-16T09:58:37.655Z,7.63
2017-06-16T10:01:03.976Z,10.23
2017-06-16T10:03:30.359Z,7.97
2017-06-16T10:05:56.686Z,9.17
2017-06-16T10:08:22.989Z,7.70
2017-06-16T10:10:49.306Z,11.43
2017-06-16T10:13:15.627Z,8.37
2017-06-16T10:15:41.945Z,8.60
2017-06-16T10:18:08.276Z,9.83
2017-06-16T10:20:34.629Z,9.90
2017-06-16T10:23:00.963Z,7.70
2017-06-16T10:25:27.287Z,7.93
2017-06-16T10:27:53.835Z,8.27
2017-06-16T10:30:20.157Z,11.10
2017-06-16T10:32:46.505Z,8.13
2017-06-16T10:35:12.825Z,8.47
2017-06-16T10:37:39.165Z,7.83
2017-06-16T10:40:05.580Z,7.43
2017-06-16T10:42:31.906Z,6.43
2017-06-16T10:44:58.218Z,14.10
2017-06-16T10:47:24.552Z,9.57
2017-06-16T10:49:50.922Z,8.63
2017-06-16T10:52:17.224Z,9.30
2017-06-16T10:54:43.547Z,8.30
2017-06-16T10:57:09.882Z,7.70
2017-06-16T10:59:36.286Z,11.13
2017-06-16T11:02:02.632Z,9.63
2017-06-16T11:04:28.938Z,7.63
2017-06-16T11:06:55.520Z,8.60
2017-06-16T11:09:21.833Z,5.93
2017-06-16T11:11:48.163Z,7.17
2017-06-16T11:14:14.490Z,6.80
2017-06-16T11:16:40.798Z,4.20
2017-06-16T11:19:07.133Z,7.30
2017-06-16T11:21:33.461Z,7.83
2017-06-16T11:23:59.797Z,9.30
2017-06-16T11:26:26.124Z,4.10
2017-06-16T11:28:52.478Z,6.10
2017-06-16T11:31:19.594Z,4.87
2017-06-16T11:33:45.890Z,9.53
2017-06-16T11:36:12.221Z,8.67
2017-06-16T11:38:38.521Z,4.97
2017-06-16T11:41:04.860Z,7.10
2017-06-16T11:43:31.193Z,4.20
2017-06-16T11:45:57.516Z,7.73
2017-06-16T11:48:23.867Z,4.83
2017-06-16T11:50:50.246Z,5.43
2017-06-16T11:53:16.669Z,5.83
2017-06-16T11:55:43.050Z,5.27
2017-06-16T11:58:09.376Z,6.60
2017-06-16T12:00:35.749Z,3.90
2017-06-16T12:03:02.061Z,3.87
2017-06-16T12:05:28.389Z,6.20
2017-06-16T12:07:54.731Z,11.70
2017-06-16T12:10:21.056Z,5.23
2017-06-16T12:12:47.395Z,4.13
2017-06-16T12:15:13.718Z,4.50
2017-06-16T12:17:40.058Z,6.50
2017-06-16T12:20:06.390Z,5.40
2017-06-16T12:22:32.718Z,5.43
2017-06-16T12:24:59.053Z,7.33
2017-06-16T12:27:25.378Z,5.93
2017-06-16T12:29:51.737Z,5.37
2017-06-16T12:32:18.086Z,4.90
2017-06-16T12:34:44.404Z,7.53
2017-06-16T12:37:10.732Z,4.27
2017-06-16T12:39:37.047Z,7.40
2017-06-16T12:42:03.363Z,5.70
2017-06-16T12:44:29.657Z,5.07
2017-06-16T12:46:55.972Z,3.10
2017-06-16T12:49:22.302Z,6.37
2017-06-16T12:51:48.694Z,6.30
2017-06-16T12:54:15.013Z,6.50
2017-06-16T12:56:41.336Z,4.70
2017-06-16T12:59:07.635Z,4.93
2017-06-16T13:01:33.982Z,5.33
2017-06-16T13:04:00.333Z,3.53
2017-06-16T13:06:26.677Z,4.47
2017-06-16T13:08:53.013Z,3.77
2017-06-16T13:11:19.409Z,7.93
2017-06-16T13:13:45.742Z,6.23
2017-06-16T13:16:12.046Z,14.33
2017-06-16T13:18:38.360Z,5.17
2017-06-16T13:21:04.705Z,5.93
2017-06-16T13:23:31.040Z,6.00
2017-06-16T13:25:57.373Z,5.13
2017-06-16T13:28:23.677Z,6.90
2017-06-16T13:30:50.042Z,4.20
2017-06-16T13:33:16.351Z,4.07
2017-06-16T13:35:42.690Z,3.43
2017-06-16T13:38:09.017Z,3.47
2017-06-16T13:40:35.413Z,5.03
2017-06-16T13:43:01.748Z,6.50
2017-06-16T13:45:28.083Z,5.43
2017-06-16T13:47:54.417Z,6.27
2017-06-16T13:50:20.767Z,5.50
2017-06-16T13:52:47.089Z,3.57
2017-06-16T13:55:13.398Z,3.07
2017-06-16T13:57:39.760Z,5.13
2017-06-16T14:00:06.107Z,6.00
2017-06-16T14:02:32.445Z,4.37
2017-06-16T14:04:58.804Z,5.63
2017-06-16T14:07:25.120Z,2.70
2017-06-16T14:09:51.476Z,3.30
2017-06-16T14:12:17.776Z,3.40
2017-06-16T14:14:44.077Z,6.40
2017-06-16T14:17:10.384Z,2.33
2017-06-16T14:19:36.755Z,5.30
2017-06-16T14:22:03.066Z,4.27
2017-06-16T14:24:29.383Z,3.30
2017-06-16T14:26:55.691Z,4.13
2017-06-16T14:29:22.023Z,6.30
2017-06-16T14:31:48.360Z,3.63
2017-06-16T14:34:14.725Z,2.33
2017-06-16T14:36:41.093Z,5.80
2017-06-16T14:39:07.441Z,4.67
2017-06-16T14:41:33.768Z,4.27
2017-06-16T14:44:00.073Z,5.37
2017-06-16T14:46:26.391Z,3.73
2017-06-16T14:48:52.739Z,6.07
2017-06-16T14:51:19.084Z,4.87
2017-06-16T14:53:45.462Z,6.03
2017-06-16T14:56:11.781Z,3.93
2017-06-16T14:58:38.633Z,4.60
2017-06-16T15:01:05.008Z,6.20
2017-06-16T15:03:31.863Z,4.80
2017-06-16T15:06:01.063Z,5.13
2017-06-16T15:08:27.436Z,5.93
2017-06-16T15:10:53.788Z,6.43
2017-06-16T15:13:20.110Z,1.80
2017-06-16T15:15:46.712Z,3.37
2017-06-16T15:18:13.185Z,6.07
2017-06-16T15:20:39.580Z,7.13
2017-06-16T15:23:06.402Z,9.77
2017-06-16T15:25:33.180Z,4.30
2017-06-16T15:27:59.519Z,3.40
2017-06-16T15:30:25.836Z,4.90
2017-06-16T15:32:52.173Z,3.80
2017-06-16T15:35:18.544Z,4.53
2017-06-16T15:37:44.846Z,5.13
2017-06-16T15:40:11.188Z,5.87
2017-06-16T15:42:37.506Z,8.83
2017-06-16T15:45:03.818Z,2.67
2017-06-16T15:47:30.565Z,6.97
2017-06-16T15:49:56.989Z,4.27
2017-06-16T15:52:23.935Z,2.47
2017-06-16T15:54:50.878Z,3.30
2017-06-16T15:57:17.236Z,3.97
2017-06-16T15:59:43.593Z,5.07
2017-06-16T16:02:09.935Z,1.90
2017-06-16T16:04:36.303Z,5.30
2017-06-16T16:07:02.671Z,5.13
2017-06-16T16:09:29.036Z,4.00
2017-06-16T16:11:55.388Z,5.90
2017-06-16T16:14:21.718Z,5.07
2017-06-16T16:16:48.054Z,4.63
2017-06-16T16:19:14.361Z,2.37
2017-06-16T16:21:40.719Z,3.23
2017-06-16T16:24:07.622Z,4.53
2017-06-16T16:26:33.939Z,10.17
2017-06-16T16:29:00.555Z,5.60
2017-06-16T16:31:26.933Z,4.47
2017-06-16T16:33:53.333Z,3.67
2017-06-16T16:36:20.079Z,6.67
2017-06-16T16:38:46.587Z,5.73
2017-06-16T16:41:12.900Z,4.90
2017-06-16T16:43:39.249Z,4.20
2017-06-16T16:46:05.570Z,3.47
2017-06-16T16:48:33.747Z,4.67
2017-06-16T16:51:11.437Z,5.70
2017-06-16T16:53:43.866Z,4.80
2017-06-16T16:56:10.229Z,5.23
2017-06-16T16:58:37.968Z,7.30
2017-06-16T17:01:04.362Z,6.83
2017-06-16T17:03:30.768Z,6.50
2017-06-16T17:05:57.112Z,5.50
2017-06-16T17:08:25.344Z,6.97
2017-06-16T17:10:51.820Z,9.30
2017-06-16T17:13:24.950Z,7.03
2017-06-16T17:15:51.466Z,7.17
2017-06-16T17:18:17.824Z,7.77
2017-06-16T17:20:44.174Z,5.23
2017-06-16T17:23:10.490Z,3.67
2017-06-16T17:25:36.838Z,2.37
2017-06-16T17:28:03.170Z,5.73
2017-06-16T17:30:29.524Z,4.90
2017-06-16T17:32:55.879Z,3.40
2017-06-16T17:35:22.328Z,2.73
2017-06-16T17:37:48.645Z,2.50
2017-06-16T17:40:16.440Z,4.37
2017-06-16T17:42:43.409Z,7.80
2017-06-16T17:45:09.856Z,5.27
2017-06-16T17:47:36.291Z,5.70
2017-06-16T17:50:02.831Z,5.87
2017-06-16T17:52:29.530Z,6.50
2017-06-16T17:54:55.941Z,6.53
2017-06-16T17:57:22.444Z,5.20
2017-06-16T17:59:49.983Z,5.90
2017-06-16T18:02:19.351Z,5.67
2017-06-16T18:04:45.693Z,3.60
2017-06-16T18:07:12.041Z,5.17
2017-06-16T18:09:38.472Z,6.40
2017-06-16T18:12:04.820Z,4.80
2017-06-16T18:14:31.166Z,6.23
2017-06-16T18:16:57.922Z,2.90
2017-06-16T18:19:24.264Z,7.40
2017-06-16T18:21:50.594Z,4.80
2017-06-16T18:24:16.977Z,3.40
2017-06-16T18:26:43.801Z,3.80
2017-06-16T18:29:11.377Z,6.33
2017-06-16T18:31:37.805Z,3.97
2017-06-16T18:34:04.149Z,2.97
2017-06-16T18:36:30.476Z,6.40
2017-06-16T18:38:57.084Z,5.90
2017-06-16T18:41:23.673Z,3.83
2017-06-16T18:43:50.001Z,8.40
2017-06-16T18:46:16.381Z,4.60
2017-06-16T18:48:43.291Z,5.10
2017-06-16T18:51:22.628Z,3.77
2017-06-16T18:53:55.920Z,5.47
2017-06-16T18:56:27.121Z,6.93
2017-06-16T18:59:07.655Z,6.90
2017-06-16T19:01:33.998Z,3.10
2017-06-16T19:04:00.386Z,6.17
2017-06-16T19:06:26.775Z,3.03
2017-06-16T19:08:53.150Z,4.37
2017-06-16T19:11:19.571Z,8.10
2017-06-16T19:13:45.922Z,4.30
2017-06-16T19:16:12.287Z,5.53
2017-06-16T19:18:38.634Z,4.80
2017-06-16T19:21:05.009Z,8.10
2017-06-16T19:23:31.350Z,2.87
2017-06-16T19:25:57.698Z,3.20
2017-06-16T19:28:24.078Z,4.63
2017-06-16T19:30:50.451Z,4.07
2017-06-16T19:33:17.341Z,5.03
2017-06-16T19:35:43.699Z,3.40
2017-06-16T19:38:10.023Z,4.13
2017-06-16T19:40:36.485Z,5.67
2017-06-16T19:43:02.810Z,5.27
2017-06-16T19:45:29.184Z,6.93
2017-06-16T19:47:55.533Z,5.30
2017-06-16T19:50:21.857Z,5.20
2017-06-16T19:52:48.283Z,6.70
2017-06-16T19:55:14.633Z,4.53
2017-06-16T19:57:41.270Z,6.17
2017-06-16T20:00:07.667Z,7.17
2017-06-16T20:02:34.041Z,6.57
2017-06-16T20:05:00.438Z,5.53
2017-06-16T20:07:26.875Z,4.63
2017-06-16T20:09:53.628Z,4.87
2017-06-16T20:12:20.122Z,4.60
2017-06-16T20:14:46.618Z,6.40
2017-06-16T20:17:12.959Z,4.77
2017-06-16T20:19:39.332Z,4.63
2017-06-16T20:22:05.678Z,5.93
2017-06-16T20:24:34.790Z,4.27
2017-06-16T20:27:01.172Z,7.60
2017-06-16T20:29:27.552Z,6.03
2017-06-16T20:31:53.961Z,5.40
2017-06-16T20:34:20.304Z,4.33
2017-06-16T20:36:46.803Z,4.67
2017-06-16T20:39:13.302Z,5.77
2017-06-16T20:41:39.810Z,3.80
2017-06-16T20:44:06.186Z,5.07
2017-06-16T20:46:32.662Z,5.73
2017-06-16T20:48:59.049Z,4.90
2017-06-16T20:51:25.758Z,5.17
2017-06-16T20:56:44.950Z,7.73
2017-06-16T20:59:11.335Z,2.90
2017-06-16T21:01:37.786Z,6.30
2017-06-16T21:04:04.139Z,4.60
2017-06-16T21:42:07.833Z,3.53
2017-06-16T21:44:34.366Z,3.33
2017-06-16T21:47:01.132Z,3.03
2017-06-16T21:49:45.483Z,4.57
2017-06-16T22:00:54.354Z,5.33
2017-06-16T22:03:20.742Z,7.50
2017-06-16T22:05:47.172Z,6.07
2017-06-16T22:08:13.531Z,4.83
2017-06-16T22:10:39.875Z,6.73
2017-06-16T22:13:06.443Z,4.73
2017-06-16T22:18:11.768Z,6.97
2017-06-16T22:20:38.942Z,5.80
2017-06-16T22:28:59.671Z,6.80
2017-06-16T22:31:31.361Z,7.00
2017-06-16T22:34:02.521Z,6.80
2017-06-16T22:36:29.070Z,5.30
2017-06-16T22:39:10.125Z,7.43
2017-06-16T22:41:37.139Z,4.43
2017-06-16T22:44:03.558Z,4.77
2017-06-16T22:46:30.577Z,5.73
2017-06-16T22:48:57.281Z,4.50
2017-06-16T22:51:24.082Z,6.10
2017-06-16T22:53:50.495Z,6.10
2017-06-16T22:56:17.622Z,4.53
2017-06-16T23:24:44.667Z,8.00
2017-06-16T23:27:11.039Z,5.00
2017-06-16T23:29:48.959Z,5.70
2017-06-16T23:32:15.549Z,3.70
2017-06-16T23:34:41.919Z,3.57
2017-06-16T23:37:25.081Z,3.40
2017-06-16T23:40:07.871Z,5.70
2017-06-16T23:42:48.110Z,7.33
2017-06-16T23:45:26.198Z,7.47
2017-06-16T23:48:03.843Z,6.57
2017-06-16T23:50:32.069Z,4.17
2017-06-16T23:53:12.094Z,3.17
2017-06-16T23:55:51.265Z,5.00
2017-06-16T23:58:17.695Z,2.60
